createdAt,value
2018-09-09T00:00:06.756Z,7.07
2018-09-09T00:02:34.286Z,7.20
2018-09-09T00:05:01.689Z,7.57
2018-09-09T00:07:29.108Z,7.00
2018-09-09T00:09:56.549Z,7.87
2018-09-09T00:12:23.968Z,7.77
2018-09-09T00:14:51.401Z,6.83
2018-09-09T00:17:18.890Z,7.90
2018-09-09T00:19:46.314Z,6.50
2018-09-09T00:22:13.747Z,6.87
2018-09-09T00:24:41.170Z,7.33
2018-09-09T00:27:08.590Z,6.83
2018-09-09T00:29:36.022Z,7.17
2018-09-09T00:32:03.492Z,7.73
2018-09-09T00:34:30.925Z,6.90
2018-09-09T00:36:58.419Z,6.70
2018-09-09T00:39:25.880Z,6.47
2018-09-09T00:41:53.310Z,6.87
2018-09-09T00:44:20.747Z,7.00
2018-09-09T00:46:48.178Z,6.90
2018-09-09T00:49:21.208Z,6.47
2018-09-09T00:51:54.461Z,7.00
2018-09-09T00:54:21.888Z,6.93
2018-09-09T00:56:49.283Z,6.70
2018-09-09T00:59:16.745Z,6.60
2018-09-09T01:01:44.161Z,8.40
2018-09-09T01:04:11.647Z,6.90
2018-09-09T01:06:39.092Z,7.00
2018-09-09T01:09:07.688Z,6.93
2018-09-09T01:11:35.112Z,7.23
2018-09-09T01:14:03.091Z,7.40
2018-09-09T01:16:30.521Z,7.23
2018-09-09T01:18:57.921Z,6.30
2018-09-09T01:21:25.442Z,6.47
2018-09-09T01:23:52.872Z,6.40
2018-09-09T01:26:20.309Z,7.13
2018-09-09T01:28:47.752Z,6.67
2018-09-09T01:31:15.180Z,7.23
2018-09-09T01:33:42.583Z,7.03
2018-09-09T01:36:10.006Z,6.40
2018-09-09T01:38:37.473Z,6.47
2018-09-09T01:41:05.098Z,6.30
2018-09-09T01:43:32.591Z,6.07
2018-09-09T01:46:00.033Z,6.57
2018-09-09T01:48:27.511Z,7.10
2018-09-09T01:50:54.937Z,6.53
2018-09-09T01:53:22.381Z,6.47
2018-09-09T01:55:49.856Z,6.53
2018-09-09T01:58:17.265Z,6.40
2018-09-09T02:00:44.693Z,6.33
2018-09-09T02:03:12.129Z,6.43
2018-09-09T02:05:39.541Z,6.17
2018-09-09T02:08:06.970Z,6.10
2018-09-09T02:10:34.403Z,5.90
2018-09-09T02:13:01.823Z,6.93
2018-09-09T02:15:29.232Z,6.30
2018-09-09T02:17:56.662Z,6.47
2018-09-09T02:20:24.083Z,6.30
2018-09-09T02:22:51.494Z,6.90
2018-09-09T02:25:18.976Z,6.60
2018-09-09T02:27:46.427Z,5.80
2018-09-09T02:30:13.917Z,6.30
2018-09-09T02:32:41.391Z,6.63
2018-09-09T02:35:08.861Z,6.17
2018-09-09T02:37:36.311Z,6.07
2018-09-09T02:40:03.873Z,5.90
2018-09-09T02:42:31.423Z,6.23
2018-09-09T02:44:58.847Z,5.83
2018-09-09T02:47:26.261Z,6.17
2018-09-09T02:49:53.899Z,6.13
2018-09-09T02:52:21.355Z,5.67
2018-09-09T02:54:48.772Z,5.70
2018-09-09T02:57:16.248Z,6.07
2018-09-09T02:59:43.677Z,5.97
2018-09-09T03:02:11.068Z,6.03
2018-09-09T03:04:38.511Z,6.17
2018-09-09T03:07:05.924Z,6.07
2018-09-09T03:09:33.471Z,5.43
2018-09-09T03:12:00.907Z,6.03
2018-09-09T03:14:28.326Z,6.00
2018-09-09T03:16:55.706Z,5.97
2018-09-09T03:19:23.188Z,6.47
2018-09-09T03:21:50.598Z,6.33
2018-09-09T03:24:18.063Z,6.27
2018-09-09T03:26:45.547Z,5.33
2018-09-09T03:29:12.942Z,5.80
2018-09-09T03:31:40.327Z,6.07
2018-09-09T03:34:07.765Z,5.67
2018-09-09T03:36:35.190Z,6.20
2018-09-09T03:39:04.123Z,6.57
2018-09-09T03:41:31.544Z,5.60
2018-09-09T03:43:58.981Z,7.17
2018-09-09T03:46:26.390Z,5.17
2018-09-09T03:48:53.809Z,6.63
2018-09-09T03:51:21.205Z,5.60
2018-09-09T03:53:48.714Z,6.00
2018-09-09T03:56:16.124Z,5.80
2018-09-09T03:58:43.550Z,6.57
2018-09-09T04:01:10.984Z,5.80
2018-09-09T04:03:39.248Z,5.93
2018-09-09T04:06:06.730Z,5.40
2018-09-09T04:08:34.165Z,6.20
2018-09-09T04:11:06.144Z,6.10
2018-09-09T04:13:33.547Z,5.70
2018-09-09T04:16:00.985Z,5.40
2018-09-09T04:18:28.405Z,5.47
2018-09-09T04:20:55.992Z,5.77
2018-09-09T04:23:23.407Z,5.77
2018-09-09T04:25:50.827Z,6.00
2018-09-09T04:28:18.227Z,5.90
2018-09-09T04:30:45.772Z,5.83
2018-09-09T04:33:13.135Z,6.00
2018-09-09T04:35:40.596Z,5.83
2018-09-09T04:38:07.986Z,6.67
2018-09-09T04:40:35.434Z,6.10
2018-09-09T04:43:02.844Z,5.73
2018-09-09T04:45:30.251Z,6.83
2018-09-09T04:47:57.654Z,6.37
2018-09-09T04:50:25.141Z,6.53
2018-09-09T04:52:52.594Z,5.70
2018-09-09T04:55:19.994Z,5.87
2018-09-09T04:57:47.399Z,5.60
2018-09-09T05:00:14.822Z,6.30
2018-09-09T05:02:42.221Z,5.50
2018-09-09T05:05:09.689Z,5.80
2018-09-09T05:07:37.137Z,6.00
2018-09-09T05:10:04.588Z,5.80
2018-09-09T05:12:32.020Z,6.70
2018-09-09T05:14:59.398Z,5.50
2018-09-09T05:17:26.831Z,5.53
2018-09-09T05:19:54.295Z,6.07
2018-09-09T05:22:21.731Z,5.93
2018-09-09T05:24:49.127Z,6.27
2018-09-09T05:27:16.567Z,5.70
2018-09-09T05:29:44.027Z,6.50
2018-09-09T05:32:11.419Z,5.60
2018-09-09T05:34:38.839Z,6.10
2018-09-09T05:37:06.239Z,5.40
2018-09-09T05:39:33.618Z,5.67
2018-09-09T05:42:01.008Z,6.60
2018-09-09T05:44:28.380Z,5.20
2018-09-09T05:46:55.811Z,5.70
2018-09-09T05:49:23.224Z,6.20
2018-09-09T05:51:50.601Z,5.80
2018-09-09T05:54:18.010Z,6.20
2018-09-09T05:56:45.445Z,5.70
2018-09-09T05:59:12.850Z,5.70
2018-09-09T06:01:40.277Z,5.97
2018-09-09T06:04:07.734Z,6.07
2018-09-09T06:06:35.149Z,6.10
2018-09-09T06:09:02.676Z,5.97
2018-09-09T06:11:30.080Z,5.87
2018-09-09T06:13:57.568Z,6.60
2018-09-09T06:16:25.012Z,6.67
2018-09-09T06:18:52.444Z,6.00
2018-09-09T06:21:19.842Z,6.03
2018-09-09T06:23:47.303Z,6.23
2018-09-09T06:26:14.738Z,5.87
2018-09-09T06:28:42.167Z,5.83
2018-09-09T06:31:09.598Z,5.30
2018-09-09T06:33:37.033Z,6.10
2018-09-09T06:36:04.588Z,5.90
2018-09-09T06:38:32.020Z,6.00
2018-09-09T06:40:59.575Z,5.97
2018-09-09T06:43:26.997Z,5.50
2018-09-09T06:45:54.456Z,6.33
2018-09-09T06:48:21.935Z,5.83
2018-09-09T06:50:49.389Z,6.27
2018-09-09T06:53:16.852Z,6.73
2018-09-09T06:55:44.294Z,6.23
2018-09-09T06:58:11.738Z,5.60
2018-09-09T07:00:39.142Z,6.00
2018-09-09T07:03:06.592Z,5.63
2018-09-09T07:05:34.252Z,5.27
2018-09-09T07:08:01.689Z,6.40
2018-09-09T07:10:29.114Z,6.00
2018-09-09T07:12:56.567Z,5.67
2018-09-09T07:15:24.011Z,7.40
2018-09-09T07:17:51.435Z,5.50
2018-09-09T07:20:18.895Z,5.83
2018-09-09T07:22:46.393Z,5.67
2018-09-09T07:25:13.828Z,6.07
2018-09-09T07:27:41.267Z,6.43
2018-09-09T07:30:08.753Z,5.53
2018-09-09T07:32:36.195Z,5.43
2018-09-09T07:35:03.673Z,5.97
2018-09-09T07:37:31.169Z,5.60
2018-09-09T07:39:58.611Z,5.83
2018-09-09T07:42:26.228Z,5.67
2018-09-09T07:44:53.683Z,5.83
2018-09-09T07:47:21.104Z,5.20
2018-09-09T07:49:48.577Z,5.27
2018-09-09T07:52:16.070Z,5.07
2018-09-09T07:54:43.474Z,5.30
2018-09-09T07:57:10.899Z,4.93
2018-09-09T07:59:38.353Z,4.90
2018-09-09T08:02:05.903Z,4.83
2018-09-09T08:04:33.415Z,5.57
2018-09-09T08:07:00.830Z,5.30
2018-09-09T08:09:28.224Z,4.57
2018-09-09T08:11:55.688Z,5.37
2018-09-09T08:14:23.877Z,5.27
2018-09-09T08:16:51.361Z,5.40
2018-09-09T08:19:18.817Z,5.00
2018-09-09T08:21:46.266Z,4.67
2018-09-09T08:24:13.751Z,5.50
2018-09-09T08:26:41.221Z,4.60
2018-09-09T08:29:08.733Z,5.97
2018-09-09T08:31:36.167Z,4.23
2018-09-09T08:34:03.633Z,4.67
2018-09-09T08:36:31.065Z,4.87
2018-09-09T08:38:58.481Z,6.03
2018-09-09T08:41:26.527Z,5.83
2018-09-09T08:43:54.011Z,5.17
2018-09-09T08:46:21.454Z,5.43
2018-09-09T08:48:48.895Z,4.60
2018-09-09T08:51:16.370Z,5.43
2018-09-09T08:53:44.556Z,5.13
2018-09-09T08:56:12.021Z,5.37
2018-09-09T08:58:41.259Z,5.03
2018-09-09T09:01:08.661Z,4.90
2018-09-09T09:03:36.158Z,4.50
2018-09-09T09:06:03.589Z,4.83
2018-09-09T09:08:31.059Z,5.17
2018-09-09T09:10:58.515Z,4.93
2018-09-09T09:13:26.003Z,4.40
2018-09-09T09:15:53.507Z,3.93
2018-09-09T09:18:21.032Z,4.37
2018-09-09T09:20:48.529Z,5.60
2018-09-09T09:23:16.065Z,4.70
2018-09-09T09:25:49.297Z,4.70
2018-09-09T09:28:16.736Z,4.40
2018-09-09T09:30:44.204Z,4.63
2018-09-09T09:33:11.661Z,4.40
2018-09-09T09:35:44.793Z,4.60
2018-09-09T09:38:12.256Z,4.87
2018-09-09T09:40:39.683Z,4.90
2018-09-09T09:43:07.134Z,5.13
2018-09-09T09:45:34.648Z,4.30
2018-09-09T09:48:02.152Z,5.17
2018-09-09T09:50:29.618Z,4.47
2018-09-09T09:52:57.037Z,4.17
2018-09-09T09:55:24.531Z,4.13
2018-09-09T09:57:51.933Z,4.80
2018-09-09T10:00:25.050Z,4.20
2018-09-09T10:02:52.503Z,4.07
2018-09-09T10:05:19.908Z,4.20
2018-09-09T10:07:47.350Z,4.23
2018-09-09T10:10:14.824Z,5.10
2018-09-09T10:12:42.410Z,4.10
2018-09-09T10:15:09.861Z,3.63
2018-09-09T10:17:37.386Z,4.70
2018-09-09T10:20:04.869Z,4.03
2018-09-09T10:22:32.290Z,3.93
2018-09-09T10:24:59.740Z,4.57
2018-09-09T10:27:27.206Z,3.77
2018-09-09T10:29:54.992Z,3.77
2018-09-09T10:32:22.413Z,3.87
2018-09-09T10:34:49.856Z,3.67
2018-09-09T10:37:17.410Z,4.10
2018-09-09T10:39:44.887Z,3.97
2018-09-09T10:42:12.401Z,3.63
2018-09-09T10:44:39.926Z,3.50
2018-09-09T10:47:08.077Z,3.20
2018-09-09T10:49:35.497Z,3.10
2018-09-09T10:52:02.950Z,3.10
2018-09-09T10:54:30.346Z,3.53
2018-09-09T10:56:57.752Z,3.73
2018-09-09T10:59:25.241Z,3.13
2018-09-09T11:01:52.700Z,3.50
2018-09-09T11:04:20.154Z,3.33
2018-09-09T11:06:47.625Z,4.17
2018-09-09T11:09:15.091Z,3.60
2018-09-09T11:11:42.628Z,3.37
2018-09-09T11:14:10.094Z,3.50
2018-09-09T11:16:37.572Z,4.37
2018-09-09T11:19:05.711Z,4.00
2018-09-09T11:21:33.134Z,4.00
2018-09-09T11:24:00.648Z,4.43
2018-09-09T11:26:28.090Z,3.97
2018-09-09T11:28:55.518Z,3.70
2018-09-09T11:31:23.023Z,4.07
2018-09-09T11:33:50.507Z,4.33
2018-09-09T11:36:18.042Z,3.87
2018-09-09T11:38:45.574Z,3.80
2018-09-09T11:41:13.191Z,3.50
2018-09-09T11:43:40.678Z,3.63
2018-09-09T11:46:08.135Z,3.23
2018-09-09T11:48:35.567Z,3.77
2018-09-09T11:51:03.093Z,3.80
2018-09-09T11:53:30.559Z,3.80
2018-09-09T11:55:58.167Z,3.13
2018-09-09T11:58:25.619Z,3.20
2018-09-09T12:00:53.055Z,3.40
2018-09-09T12:03:20.489Z,3.47
2018-09-09T12:05:47.937Z,3.43
2018-09-09T12:08:15.369Z,3.67
2018-09-09T12:10:43.682Z,3.57
2018-09-09T12:13:11.129Z,4.07
2018-09-09T12:15:38.581Z,3.57
2018-09-09T12:18:06.852Z,3.90
2018-09-09T12:20:34.263Z,4.47
2018-09-09T12:23:01.702Z,3.10
2018-09-09T12:25:29.178Z,3.43
2018-09-09T12:27:57.341Z,3.53
2018-09-09T12:30:24.820Z,3.53
2018-09-09T12:32:52.270Z,4.10
2018-09-09T12:35:19.824Z,4.40
2018-09-09T12:37:47.332Z,3.93
2018-09-09T12:40:14.778Z,3.50
2018-09-09T12:42:42.173Z,3.40
2018-09-09T12:46:16.777Z,3.83
2018-09-09T12:48:50.004Z,3.70
2018-09-09T12:51:17.437Z,3.87
2018-09-09T12:53:44.921Z,4.00
2018-09-09T12:56:13.226Z,3.83
2018-09-09T12:58:40.647Z,4.00
2018-09-09T13:01:08.078Z,3.50
2018-09-09T13:03:35.510Z,4.53
2018-09-09T13:06:02.956Z,4.17
2018-09-09T13:08:30.415Z,3.80
2018-09-09T13:10:57.863Z,4.27
2018-09-09T13:13:26.748Z,3.97
2018-09-09T13:15:54.874Z,4.53
2018-09-09T13:18:22.321Z,3.73
2018-09-09T13:20:49.792Z,4.33
2018-09-09T13:23:17.258Z,4.40
2018-09-09T13:25:44.721Z,4.20
2018-09-09T13:28:12.232Z,3.67
2018-09-09T13:30:40.644Z,4.20
2018-09-09T13:33:08.164Z,3.77
2018-09-09T13:35:35.642Z,4.00
2018-09-09T13:38:03.225Z,4.33
2018-09-09T13:40:30.693Z,4.57
2018-09-09T13:42:58.139Z,4.63
2018-09-09T13:45:25.587Z,4.10
2018-09-09T13:47:53.024Z,3.87
2018-09-09T13:50:20.506Z,5.13
2018-09-09T13:52:47.955Z,3.63
2018-09-09T13:55:16.291Z,3.77
2018-09-09T13:57:43.740Z,4.17
2018-09-09T14:00:11.264Z,4.23
2018-09-09T14:02:38.729Z,4.10
2018-09-09T14:05:06.262Z,4.80
2018-09-09T14:07:33.684Z,3.90
2018-09-09T14:10:01.144Z,4.50
2018-09-09T14:12:28.594Z,3.83
2018-09-09T14:14:56.139Z,4.90
2018-09-09T14:17:23.656Z,4.27
2018-09-09T14:19:51.123Z,3.87
2018-09-09T14:22:18.677Z,4.37
2018-09-09T14:24:46.074Z,4.50
2018-09-09T14:27:13.531Z,4.70
2018-09-09T14:29:40.965Z,5.37
2018-09-09T14:32:08.483Z,4.43
2018-09-09T14:34:35.961Z,4.80
2018-09-09T14:37:03.449Z,4.17
2018-09-09T14:39:30.893Z,4.30
2018-09-09T14:41:58.340Z,4.13
2018-09-09T14:44:25.771Z,3.73
2018-09-09T14:46:53.226Z,4.63
2018-09-09T14:49:20.748Z,4.27
2018-09-09T14:51:48.146Z,4.13
2018-09-09T14:54:15.612Z,5.53
2018-09-09T14:56:43.128Z,6.87
2018-09-09T14:59:10.670Z,4.93
2018-09-09T15:01:38.187Z,5.60
2018-09-09T15:04:05.714Z,4.53
2018-09-09T15:06:33.203Z,6.33
2018-09-09T15:09:00.639Z,4.53
2018-09-09T15:11:28.080Z,3.80
2018-09-09T15:13:55.656Z,4.00
2018-09-09T15:16:23.107Z,4.10
2018-09-09T15:18:50.569Z,4.10
2018-09-09T15:21:18.092Z,4.97
2018-09-09T15:23:45.528Z,4.70
2018-09-09T15:26:13.012Z,4.00
2018-09-09T15:28:40.508Z,4.20
2018-09-09T15:31:07.982Z,4.37
2018-09-09T15:33:35.443Z,4.37
2018-09-09T15:36:02.926Z,4.43
2018-09-09T15:38:30.478Z,5.17
2018-09-09T15:40:57.934Z,4.03
2018-09-09T15:43:25.422Z,3.73
2018-09-09T15:45:52.892Z,3.83
2018-09-09T15:48:20.349Z,3.87
2018-09-09T15:50:47.798Z,4.37
2018-09-09T15:53:15.326Z,4.07
2018-09-09T15:55:42.780Z,4.53
2018-09-09T15:58:10.301Z,4.13
2018-09-09T16:00:38.460Z,3.63
2018-09-09T16:03:06.471Z,4.00
2018-09-09T16:05:33.952Z,4.03
2018-09-09T16:08:01.406Z,3.93
2018-09-09T16:10:28.916Z,4.50
2018-09-09T16:12:56.448Z,4.00
2018-09-09T16:15:23.972Z,3.80
2018-09-09T16:17:51.415Z,4.23
2018-09-09T16:20:18.903Z,4.27
2018-09-09T16:22:46.378Z,4.40
2018-09-09T16:25:13.876Z,4.20
2018-09-09T16:27:41.335Z,4.40
2018-09-09T16:30:09.253Z,3.87
2018-09-09T16:32:36.799Z,4.30
2018-09-09T16:35:04.677Z,4.43
2018-09-09T16:37:32.110Z,3.83
2018-09-09T16:39:59.542Z,4.27
2018-09-09T16:42:26.953Z,4.80
2018-09-09T16:44:54.498Z,4.50
2018-09-09T16:47:21.953Z,4.10
2018-09-09T16:49:49.513Z,3.30
2018-09-09T16:52:16.947Z,4.57
2018-09-09T16:54:44.367Z,4.13
2018-09-09T16:57:11.973Z,4.33
2018-09-09T16:59:39.404Z,4.37
2018-09-09T17:02:06.863Z,4.73
2018-09-09T17:04:34.304Z,4.37
2018-09-09T17:07:01.766Z,4.67
2018-09-09T17:09:29.197Z,3.83
2018-09-09T17:11:56.640Z,4.57
2018-09-09T17:14:24.047Z,4.10
2018-09-09T17:16:51.481Z,4.97
2018-09-09T17:19:19.489Z,4.87
2018-09-09T17:21:46.929Z,4.00
2018-09-09T17:24:14.353Z,4.73
2018-09-09T17:26:41.800Z,4.70
2018-09-09T17:29:09.212Z,3.87
2018-09-09T17:31:36.671Z,4.77
2018-09-09T17:34:04.307Z,5.87
2018-09-09T17:36:31.775Z,4.80
2018-09-09T17:38:59.269Z,4.40
2018-09-09T17:41:26.733Z,4.57
2018-09-09T17:43:54.183Z,4.90
2018-09-09T17:46:21.611Z,5.03
2018-09-09T17:48:49.066Z,5.17
2018-09-09T17:51:16.506Z,5.50
2018-09-09T17:53:43.968Z,5.03
2018-09-09T17:56:11.381Z,5.50
2018-09-09T17:58:39.438Z,5.60
2018-09-09T18:01:06.928Z,5.80
2018-09-09T18:03:34.349Z,6.00
2018-09-09T18:06:01.817Z,6.10
2018-09-09T18:08:29.344Z,5.80
2018-09-09T18:10:56.862Z,6.10
2018-09-09T18:13:24.281Z,6.40
2018-09-09T18:15:51.854Z,5.73
2018-09-09T18:18:19.379Z,5.90
2018-09-09T18:20:46.960Z,5.80
2018-09-09T18:23:15.181Z,6.20
2018-09-09T18:25:42.680Z,6.07
2018-09-09T18:28:10.240Z,7.37
2018-09-09T18:30:37.703Z,5.57
2018-09-09T18:33:05.130Z,6.10
2018-09-09T18:35:32.573Z,7.10
2018-09-09T18:38:00.026Z,7.13
2018-09-09T18:40:27.517Z,6.00
2018-09-09T18:42:54.964Z,6.93
2018-09-09T18:45:22.438Z,7.97
2018-09-09T18:47:49.851Z,6.73
2018-09-09T18:50:17.266Z,6.87
2018-09-09T18:52:44.756Z,7.10
2018-09-09T18:55:12.269Z,7.73
2018-09-09T18:57:39.661Z,7.33
2018-09-09T19:00:07.250Z,6.97
2018-09-09T19:02:35.490Z,7.47
2018-09-09T19:05:03.146Z,7.40
2018-09-09T19:07:30.623Z,7.53
2018-09-09T19:09:58.175Z,7.60
2018-09-09T19:12:25.672Z,7.37
2018-09-09T19:14:53.206Z,6.40
2018-09-09T19:17:20.703Z,7.07
2018-09-09T19:19:48.226Z,6.90
2018-09-09T19:22:15.680Z,7.27
2018-09-09T19:24:43.176Z,7.33
2018-09-09T19:27:10.773Z,7.77
2018-09-09T19:29:38.340Z,8.00
2018-09-09T19:32:06.563Z,7.97
2018-09-09T19:34:34.051Z,7.23
2018-09-09T19:37:01.816Z,7.73
2018-09-09T19:39:29.425Z,8.10
2018-09-09T19:41:56.988Z,7.17
2018-09-09T19:44:24.524Z,6.93
2018-09-09T19:46:52.027Z,7.20
2018-09-09T19:49:19.572Z,8.07
2018-09-09T19:51:47.131Z,7.33
2018-09-09T19:54:14.594Z,6.97
2018-09-09T19:56:42.134Z,7.33
2018-09-09T19:59:09.683Z,6.73
2018-09-09T20:01:37.188Z,7.03
2018-09-09T20:04:04.652Z,7.73
2018-09-09T20:06:32.219Z,7.07
2018-09-09T20:08:59.689Z,7.17
2018-09-09T20:11:27.198Z,7.00
2018-09-09T20:13:54.663Z,7.60
2018-09-09T20:16:22.995Z,8.10
2018-09-09T20:18:50.523Z,7.50
2018-09-09T20:21:18.042Z,6.97
2018-09-09T20:23:46.165Z,7.23
2018-09-09T20:26:13.650Z,6.83
2018-09-09T20:28:41.236Z,7.70
2018-09-09T20:31:08.718Z,8.10
2018-09-09T20:33:36.216Z,7.07
2018-09-09T20:36:03.843Z,8.00
2018-09-09T20:38:31.382Z,7.33
2018-09-09T20:40:58.950Z,8.53
2018-09-09T20:43:26.431Z,7.63
2018-09-09T20:45:53.962Z,8.23
2018-09-09T20:48:21.391Z,7.13
2018-09-09T20:50:48.889Z,7.17
2018-09-09T20:53:16.357Z,7.40
2018-09-09T20:55:43.823Z,7.67
2018-09-09T20:58:11.280Z,8.43
2018-09-09T21:00:38.692Z,7.50
2018-09-09T21:03:06.111Z,8.67
2018-09-09T21:05:33.550Z,7.40
2018-09-09T21:08:00.962Z,7.23
2018-09-09T21:10:28.402Z,7.50
2018-09-09T21:12:55.825Z,8.43
2018-09-09T21:15:23.324Z,6.97
2018-09-09T21:17:50.738Z,7.73
2018-09-09T21:20:18.211Z,7.30
2018-09-09T21:22:45.645Z,7.83
2018-09-09T21:25:13.062Z,7.30
2018-09-09T21:27:40.548Z,8.60
2018-09-09T21:30:08.986Z,7.60
2018-09-09T21:32:36.403Z,7.80
2018-09-09T21:35:03.906Z,7.70
2018-09-09T21:37:31.320Z,7.87
2018-09-09T21:39:58.904Z,7.37
2018-09-09T21:42:26.320Z,7.83
2018-09-09T21:44:53.752Z,7.63
2018-09-09T21:47:21.206Z,7.47
2018-09-09T21:49:48.618Z,7.10
2018-09-09T21:52:16.090Z,7.40
2018-09-09T21:54:43.544Z,7.70
2018-09-09T21:57:10.984Z,8.13
2018-09-09T21:59:38.399Z,7.07
2018-09-09T22:02:06.676Z,6.47
2018-09-09T22:04:34.443Z,6.03
2018-09-09T22:07:02.537Z,5.97
2018-09-09T22:09:29.918Z,7.47
2018-09-09T22:11:57.334Z,7.90
2018-09-09T22:14:24.772Z,5.60
2018-09-09T22:16:52.262Z,6.10
2018-09-09T22:19:19.725Z,6.43
2018-09-09T22:21:48.571Z,5.90
2018-09-09T22:24:17.007Z,6.73
2018-09-09T22:26:44.717Z,5.60
2018-09-09T22:29:12.168Z,6.10
2018-09-09T22:31:39.587Z,6.50
2018-09-09T22:34:07.055Z,7.50
2018-09-09T22:36:34.483Z,5.60
2018-09-09T22:39:01.928Z,6.37
2018-09-09T22:41:29.421Z,6.10
2018-09-09T22:43:56.845Z,6.17
2018-09-09T22:46:24.263Z,6.27
2018-09-09T22:48:51.691Z,7.70
2018-09-09T22:51:19.129Z,7.00
2018-09-09T22:53:46.598Z,5.93
2018-09-09T22:56:14.056Z,6.83
2018-09-09T22:58:41.480Z,7.07
2018-09-09T23:01:08.922Z,6.60
2018-09-09T23:03:36.341Z,5.53
2018-09-09T23:06:03.784Z,6.07
2018-09-09T23:08:31.208Z,5.63
2018-09-09T23:10:58.635Z,6.20
2018-09-09T23:13:26.051Z,6.40
2018-09-09T23:15:53.557Z,6.60
2018-09-09T23:18:21.039Z,5.53
2018-09-09T23:20:48.513Z,6.83
2018-09-09T23:23:15.908Z,6.10
2018-09-09T23:25:43.429Z,5.43
2018-09-09T23:28:10.879Z,5.87
2018-09-09T23:30:38.307Z,6.53
2018-09-09T23:33:05.762Z,5.77
2018-09-09T23:35:33.211Z,5.73
2018-09-09T23:38:00.618Z,6.23
2018-09-09T23:40:28.028Z,5.53
2018-09-09T23:42:55.483Z,6.73
2018-09-09T23:45:22.895Z,6.13
2018-09-09T23:47:50.323Z,7.00
2018-09-09T23:50:17.716Z,6.00
2018-09-09T23:52:45.149Z,6.57
2018-09-09T23:55:12.542Z,6.53
2018-09-09T23:57:39.983Z,6.20
